Monday, January 22, 2018, 9:10 AM EST
Back to Local

KITH, Ithaca, Ithaca Tompkins Regional Airport

Location: Ithaca, NY, United States Lat: 42.491
Local Time: 9:10 AM EST (14:10 GMT) Lon: -76.458
Time Zone: US/Eastern Elev: 1099 ft

Show me the last for .
Show Decoded

2018-01-22 08:56 METAR KITH 221356Z 09004KT 3SM BCFG BR SCT013 OVC029 03/03 A3011 RMK AO2 SLP204
                 T00330028 =
2018-01-22 07:56 METAR KITH 221256Z 09004KT 2SM BCFG BR OVC011 03/02 A3011 RMK AO2 SLP205
                 T00280022 =
2018-01-22 06:56 METAR KITH 221156Z 09004KT 3SM BR OVC011 03/02 A3009 RMK AO2 SLP198 60001 70001
                 T00280022 10028 20022 53007 =
2018-01-22 06:30 METAR KITH 221130Z 09004KT 3SM BR OVC011 03/02 A3008 RMK AO2 =
2018-01-22 05:56 METAR KITH 221056Z AUTO 08005KT 3SM BR OVC011 03/03 A3008 RMK AO2 SLP194
                 T00280028 =
2018-01-22 05:43 METAR KITH 221043Z AUTO 07005KT 2SM BR OVC011 03/02 A3008 RMK AO2 =
2018-01-22 05:34 METAR KITH 221034Z AUTO 07004KT 1 3/4SM BR OVC013 03/02 A3008 RMK AO2 =
2018-01-22 05:13 METAR KITH 221013Z AUTO 00000KT 2SM BR OVC013 03/02 A3009 RMK AO2 =
2018-01-22 05:04 METAR KITH 221004Z AUTO 00000KT 1 3/4SM BR OVC013 02/02 A3008 RMK AO2 =
2018-01-22 04:56 METAR KITH 220956Z AUTO 00000KT 2SM BR OVC013 02/02 A3008 RMK AO2 SLP194
                 T00220017 =
2018-01-22 04:45 METAR KITH 220945Z AUTO 00000KT 2 1/2SM BR FEW008 OVC015 02/02 A3007 RMK AO2 =
2018-01-22 04:30 METAR KITH 220930Z AUTO 08003KT 3SM BR OVC015 03/03 A3005 RMK AO2 =
2018-01-22 04:23 METAR KITH 220923Z AUTO 07006KT 2 1/2SM BR OVC015 03/02 A3004 RMK AO2 =
2018-01-22 03:56 METAR KITH 220856Z AUTO 09005KT 3SM R32/6000VP6000FT BR OVC017 03/03 A3007 RMK
                 AO2 RAE03 SLP190 P0000 60001 T00280028 58003 =
2018-01-22 03:07 METAR KITH 220807Z AUTO 09003KT 4SM BR OVC017 03/02 A3007 RMK AO2 RAE03 P0000 =
2018-01-22 02:56 METAR KITH 220756Z AUTO 09003KT 2 1/2SM -RA BR OVC017 02/02 A3008 RMK AO2
                 UPE43RAB00E09B43 SLP193 P0001 T00220017 =
2018-01-22 02:05 METAR KITH 220705Z AUTO 07003KT 2 1/2SM -RA BR OVC015 03/02 A3008 RMK AO2
                 UPE00RAB00 P0000 =
2018-01-22 01:56 METAR KITH 220656Z AUTO 07003KT 3SM UP BR OVC013 03/02 A3008 RMK AO2 RAE49UPB49
                 SLP193 P0000 T00280022 =
2018-01-22 01:49 METAR KITH 220649Z AUTO 09003KT 3SM UP BR OVC013 03/02 A3007 RMK AO2 RAE49UPB49
                 P0000 =
2018-01-22 01:40 METAR KITH 220640Z AUTO 08004KT 2 1/2SM -RA BR OVC011 03/03 A3007 RMK AO2 P0000
                 =
2018-01-22 01:16 METAR KITH 220616Z AUTO 09004KT 3SM -RA BR OVC009 03/02 A3007 RMK AO2 CIG
                 007V011 P0000 =
2018-01-22 01:03 METAR KITH 220603Z AUTO 10003KT 2 1/2SM -RA BR BKN009 OVC012 02/02 A3008 RMK AO2
                 CIG 007V012 P0000 =
2018-01-22 00:56 METAR KITH 220556Z AUTO 09003KT 2 1/2SM -RA BR OVC012 02/02 A3008 RMK AO2
                 UPB43E46 SLP193 P0000 60000 T00220017 10033 20022 56007 =
2018-01-22 00:26 METAR KITH 220526Z AUTO 00000KT 5SM -RA BR OVC014 03/02 A3008 RMK AO2 P0000 =
2018-01-21 23:56 METAR KITH 220456Z AUTO 12004KT 8SM -RA FEW008 OVC021 03/03 A3008 RMK AO2 RAB37
                 SLP195 P0000 T00330028 400561078 =
2018-01-21 23:29 METAR KITH 220429Z AUTO 13003KT 8SM FEW008 OVC029 03/03 A3009 RMK AO2 =
2018-01-21 22:56 METAR KITH 220356Z AUTO 14004KT 8SM OVC029 03/02 A3008 RMK AO2 UPB06E26 SLP196
                 P0000 T00330022 =
2018-01-21 22:26 METAR KITH 220326Z AUTO 15005KT 7SM SCT009 BKN029 03/02 A3009 RMK AO2 UPB06E26
                 P0000 =
2018-01-21 22:03 METAR KITH 220303Z AUTO 17006KT 7SM BKN009 BKN019 OVC034 03/02 A3010 RMK AO2 =
2018-01-21 21:56 METAR KITH 220256Z 17003KT 6SM BR SCT009 BKN019 OVC034 03/02 A3010 RMK AO2
                 UPE0157RAB0157E51 SLP202 P0000 60000 T00280022 56003 =
2018-01-21 20:56 METAR KITH 220156Z COR 15005KT 4SM -RA BR BKN009 OVC017 03/02 A3010 RMK AO2
                 RAE55UPB56 SLP204 P0000 T00280022 =
2018-01-21 19:56 METAR KITH 220056Z 10003KT 4SM -RA BR BKN012 OVC019 03/02 A3010 RMK AO2
                 RAE34B53UPB34E52 SLP205 P0000 T00280017 =
2018-01-21 18:56 METAR KITH 212356Z 15004KT 9SM -RA OVC027 03/01 A3011 RMK AO2 RAB55 SLP208 P0000
                 60000 T00330006 10056 20033 53006 =
2018-01-21 17:56 METAR KITH 212256Z 13004KT 10SM OVC027 03/00 A3010 RMK AO2 SLP205 T00330000 =
2018-01-21 16:56 METAR KITH 212156Z 14006KT 10SM OVC022 03/00 A3009 RMK AO2 SLP203 T00330000 =
2018-01-21 15:56 METAR KITH 212056Z 16004KT 10SM OVC022 04/01 A3009 RMK AO2 SLP201 T00390006
                 55004 =
2018-01-21 14:56 METAR KITH 211956Z 17007KT 10SM OVC025 04/00 A3008 RMK AO2 SLP199 T00440000 =
2018-01-21 13:56 METAR KITH 211856Z 15003KT 10SM OVC027 05/M01 A3009 RMK AO2 SLP200 T00501006 =
2018-01-21 12:56 METAR KITH 211756Z 19005KT 10SM BKN025 05/M01 A3010 RMK AO2 SLP206 T00501006
                 10050 21067 58015 =
2018-01-21 11:56 METAR KITH 211656Z 16006KT 9SM BKN023 05/M01 A3012 RMK AO2 SLP211 T00501006 =
2018-01-21 10:56 METAR KITH 211556Z 19004KT 9SM CLR 04/M01 A3015 RMK AO2 SLP221 T00391006 =
2018-01-21 09:56 METAR KITH 211456Z 00000KT 9SM CLR 01/01 A3015 RMK AO2 SLP222 T00110006 53009 =

Support USWX by starting your Amazon purchase here.